Time;durP1;ratioP1;P1;durP2;ratioP2;P2;SDS_P1;SDS_P2;PMS_P1;PMS_P2;Temp;Humidity;BMP_temperature;BMP_pressure;BME280_temperature;BME280_humidity;BME280_pressure;Samples;Min_cycle;Max_cycle;Signal;HPM_P1;HPM_P2
2023/08/31 00:00:35;;;;;;;3.47;1.00;;;;;;;;;;5053759;28;20021;-60
2023/08/31 00:03:01;;;;;;;5.18;1.27;;;;;;;;;;5052657;28;20028;-60
2023/08/31 00:05:30;;;;;;;1.67;0.88;;;;;;;;;;5053110;28;20033;-60
2023/08/31 00:07:56;;;;;;;1.98;1.00;;;;;;;;;;5053613;28;20104;-59
2023/08/31 00:10:23;;;;;;;7.68;1.88;;;;;;;;;;5053646;28;20029;-59
2023/08/31 00:12:49;;;;;;;1.60;1.00;;;;;;;;;;5053220;28;20117;-60
2023/08/31 00:15:15;;;;;;;2.22;1.25;;;;;;;;;;5053035;28;20082;-60
2023/08/31 00:17:42;;;;;;;2.25;1.50;;;;;;;;;;5052372;28;20037;-60
2023/08/31 00:20:11;;;;;;;1.83;1.15;;;;;;;;;;5053275;28;20029;-60
2023/08/31 00:22:37;;;;;;;2.70;1.55;;;;;;;;;;5051469;28;20029;-60
2023/08/31 00:25:05;;;;;;;2.08;1.40;;;;;;;;;;5052223;28;20482;-60
2023/08/31 00:27:31;;;;;;;2.95;2.10;;;;;;;;;;5052830;28;20029;-60
2023/08/31 00:29:58;;;;;;;2.20;1.20;;;;;;;;;;5053157;28;20028;-60
2023/08/31 00:32:24;;;;;;;2.38;1.30;;;;;;;;;;5052484;28;20040;-60
2023/08/31 00:34:50;;;;;;;2.78;1.70;;;;;;;;;;5053303;28;20032;-59
2023/08/31 00:37:16;;;;;;;2.40;1.52;;;;;;;;;;5018423;28;1012532;-60
2023/08/31 00:39:43;;;;;;;2.20;1.10;;;;;;;;;;5053775;28;20295;-60
2023/08/31 00:42:10;;;;;;;2.75;1.55;;;;;;;;;;5053214;28;20025;-60
2023/08/31 00:44:36;;;;;;;2.95;1.40;;;;;;;;;;5053160;28;20375;-60
2023/08/31 00:47:02;;;;;;;3.63;1.75;;;;;;;;;;5053568;28;20154;-59
2023/08/31 00:49:29;;;;;;;3.53;1.50;;;;;;;;;;5053231;28;20455;-60
2023/08/31 00:51:57;;;;;;;4.05;2.00;;;;;;;;;;5053171;28;20477;-60
2023/08/31 00:54:23;;;;;;;3.05;1.63;;;;;;;;;;5053108;28;20032;-60
2023/08/31 00:56:53;;;;;;;5.80;2.03;;;;;;;;;;5053081;28;20504;-60
2023/08/31 00:59:18;;;;;;;2.90;1.75;;;;;;;;;;5053649;28;20032;-60
2023/08/31 01:01:57;;;;;;;3.95;1.65;;;;;;;;;;5053120;28;20451;-60
2023/08/31 01:04:30;;;;;;;3.55;1.65;;;;;;;;;;5053526;28;20055;-60
2023/08/31 01:07:13;;;;;;;3.30;2.00;;;;;;;;;;5053042;28;20033;-59
2023/08/31 01:09:50;;;;;;;3.15;1.75;;;;;;;;;;5053045;28;20029;-59
2023/08/31 01:12:19;;;;;;;1.98;1.27;;;;;;;;;;5053580;28;20086;-59
2023/08/31 01:14:54;;;;;;;2.70;1.63;;;;;;;;;;5052916;28;20033;-60
2023/08/31 01:17:21;;;;;;;4.55;1.73;;;;;;;;;;5053169;28;20025;-60
2023/08/31 01:19:47;;;;;;;2.70;1.48;;;;;;;;;;5053310;28;20032;-60
2023/08/31 01:22:17;;;;;;;2.47;1.48;;;;;;;;;;5052575;28;20025;-60
2023/08/31 01:24:43;;;;;;;1.30;0.90;;;;;;;;;;5052791;28;20087;-59
2023/08/31 01:27:10;;;;;;;4.72;1.88;;;;;;;;;;5053631;28;20312;-59
2023/08/31 01:29:36;;;;;;;2.60;1.50;;;;;;;;;;5053157;28;20370;-60
2023/08/31 01:32:05;;;;;;;2.95;1.50;;;;;;;;;;5052581;28;20424;-60
2023/08/31 01:34:31;;;;;;;2.90;1.55;;;;;;;;;;5055876;28;20132;-60
2023/08/31 01:36:59;;;;;;;2.15;1.40;;;;;;;;;;5056835;28;20466;-60
2023/08/31 01:39:29;;;;;;;3.83;2.00;;;;;;;;;;5056860;28;20041;-60
2023/08/31 01:41:57;;;;;;;3.55;1.75;;;;;;;;;;5056233;28;20082;-59
2023/08/31 01:44:24;;;;;;;2.00;1.30;;;;;;;;;;5056129;28;20040;-59
2023/08/31 01:46:52;;;;;;;3.47;1.77;;;;;;;;;;5056181;28;20029;-60
2023/08/31 01:49:18;;;;;;;3.85;1.60;;;;;;;;;;5056633;28;20017;-59
2023/08/31 01:51:44;;;;;;;1.88;1.20;;;;;;;;;;5055837;28;20036;-60
2023/08/31 01:54:10;;;;;;;2.75;1.70;;;;;;;;;;5056002;28;20538;-59
2023/08/31 01:56:35;;;;;;;3.47;1.90;;;;;;;;;;5056251;28;20351;-60
2023/08/31 01:59:02;;;;;;;3.22;1.77;;;;;;;;;;5056752;28;20439;-60
2023/08/31 02:01:29;;;;;;;3.88;1.52;;;;;;;;;;5056445;28;20028;-60
2023/08/31 02:03:55;;;;;;;5.90;1.83;;;;;;;;;;5056394;28;20096;-59
2023/08/31 02:06:21;;;;;;;2.55;1.75;;;;;;;;;;5055840;28;20075;-60
2023/08/31 02:08:47;;;;;;;2.85;1.80;;;;;;;;;;5055745;28;20025;-59
2023/08/31 02:11:13;;;;;;;2.83;1.63;;;;;;;;;;5055691;28;20029;-59
2023/08/31 02:13:39;;;;;;;2.28;1.40;;;;;;;;;;5055864;28;20067;-59
2023/08/31 02:16:05;;;;;;;2.47;1.65;;;;;;;;;;5055642;28;20114;-59
2023/08/31 02:18:31;;;;;;;2.92;1.70;;;;;;;;;;5055564;28;20465;-59
2023/08/31 02:20:57;;;;;;;2.45;1.52;;;;;;;;;;5055893;28;20027;-59
2023/08/31 02:23:23;;;;;;;3.22;1.77;;;;;;;;;;5055485;28;20021;-59
2023/08/31 02:25:49;;;;;;;2.65;1.85;;;;;;;;;;5055047;28;20467;-59
2023/08/31 02:28:17;;;;;;;3.00;1.95;;;;;;;;;;5055420;28;20112;-59
2023/08/31 02:30:45;;;;;;;4.88;2.42;;;;;;;;;;5056175;28;20142;-60
2023/08/31 02:33:10;;;;;;;2.60;1.85;;;;;;;;;;5055326;28;20159;-60
2023/08/31 02:35:36;;;;;;;3.35;1.83;;;;;;;;;;5055402;28;20550;-60
2023/08/31 02:38:02;;;;;;;2.00;1.58;;;;;;;;;;5055198;28;20067;-59
2023/08/31 02:40:28;;;;;;;3.90;2.00;;;;;;;;;;5055953;28;20051;-59
2023/08/31 02:42:54;;;;;;;3.38;1.75;;;;;;;;;;5055339;28;20457;-60
2023/08/31 02:45:20;;;;;;;2.65;1.40;;;;;;;;;;5054064;28;20403;-59
2023/08/31 02:47:47;;;;;;;2.95;2.22;;;;;;;;;;5055365;28;20044;-59
2023/08/31 02:50:13;;;;;;;2.85;1.48;;;;;;;;;;5055845;28;20503;-60
2023/08/31 02:52:40;;;;;;;2.55;1.48;;;;;;;;;;5054679;28;20059;-59
2023/08/31 02:55:06;;;;;;;2.88;2.00;;;;;;;;;;5054837;28;20033;-59
2023/08/31 02:57:32;;;;;;;3.00;1.88;;;;;;;;;;5054767;28;20029;-59
2023/08/31 02:59:58;;;;;;;3.20;2.35;;;;;;;;;;5055591;28;20032;-59
2023/08/31 03:02:24;;;;;;;2.85;1.83;;;;;;;;;;5055304;28;20029;-59
2023/08/31 03:04:50;;;;;;;6.80;2.70;;;;;;;;;;5054639;28;20406;-59
2023/08/31 03:07:16;;;;;;;2.78;2.13;;;;;;;;;;5054652;28;20032;-59
2023/08/31 03:09:42;;;;;;;2.45;1.80;;;;;;;;;;5055191;28;20021;-59
2023/08/31 03:12:08;;;;;;;2.85;1.98;;;;;;;;;;5055113;28;20060;-60
2023/08/31 03:14:34;;;;;;;3.70;1.92;;;;;;;;;;5054569;28;20033;-60
2023/08/31 03:17:00;;;;;;;2.53;1.60;;;;;;;;;;5054456;28;20060;-59
2023/08/31 03:19:26;;;;;;;3.47;2.38;;;;;;;;;;5055016;28;20351;-59
2023/08/31 03:21:52;;;;;;;3.15;1.95;;;;;;;;;;5054048;28;20033;-60
2023/08/31 03:24:18;;;;;;;3.40;2.13;;;;;;;;;;5054267;28;20021;-59
2023/08/31 03:26:44;;;;;;;2.92;1.92;;;;;;;;;;5054017;28;20104;-59
2023/08/31 03:29:10;;;;;;;3.28;2.10;;;;;;;;;;5054843;28;20115;-59
2023/08/31 03:31:35;;;;;;;4.50;3.30;;;;;;;;;;5054205;28;20032;-59
2023/08/31 03:34:01;;;;;;;2.88;1.88;;;;;;;;;;5054491;28;20039;-59
2023/08/31 03:36:27;;;;;;;3.22;2.30;;;;;;;;;;5054010;28;20142;-59
2023/08/31 03:38:53;;;;;;;2.97;2.20;;;;;;;;;;5054238;28;20033;-60
2023/08/31 03:41:20;;;;;;;3.97;2.28;;;;;;;;;;5053963;28;20087;-59
2023/08/31 03:43:46;;;;;;;3.25;1.80;;;;;;;;;;5053979;28;20029;-60
2023/08/31 03:46:12;;;;;;;3.05;2.08;;;;;;;;;;5053728;28;20526;-59
2023/08/31 03:48:38;;;;;;;2.90;1.80;;;;;;;;;;5053907;28;20064;-60
2023/08/31 03:51:04;;;;;;;3.28;2.17;;;;;;;;;;5054468;28;20025;-59
2023/08/31 03:53:30;;;;;;;5.55;2.17;;;;;;;;;;5053829;28;20043;-59
2023/08/31 03:55:56;;;;;;;2.60;1.90;;;;;;;;;;5053619;28;20029;-59
2023/08/31 03:58:22;;;;;;;3.08;1.95;;;;;;;;;;5053749;28;20070;-59
2023/08/31 04:00:51;;;;;;;3.58;1.75;;;;;;;;;;5054266;28;20024;-59
2023/08/31 04:03:17;;;;;;;2.67;2.00;;;;;;;;;;5054285;28;20411;-60
2023/08/31 04:05:42;;;;;;;3.63;2.72;;;;;;;;;;5053361;28;20056;-59
2023/08/31 04:08:08;;;;;;;3.92;2.17;;;;;;;;;;5053696;28;20036;-59
2023/08/31 04:10:34;;;;;;;3.35;2.67;;;;;;;;;;5054572;28;20025;-59
2023/08/31 04:13:00;;;;;;;2.90;2.22;;;;;;;;;;5054394;28;20056;-60
2023/08/31 04:15:26;;;;;;;2.58;2.03;;;;;;;;;;5053645;28;20079;-59
2023/08/31 04:17:52;;;;;;;4.95;2.38;;;;;;;;;;5054120;28;20108;-60
2023/08/31 04:20:18;;;;;;;5.35;2.60;;;;;;;;;;5054099;28;20075;-60
2023/08/31 04:22:44;;;;;;;3.67;2.33;;;;;;;;;;5053518;28;20402;-60
2023/08/31 04:25:10;;;;;;;2.92;2.25;;;;;;;;;;5054200;28;20451;-59
2023/08/31 04:27:39;;;;;;;2.75;1.95;;;;;;;;;;5053833;28;20032;-59
2023/08/31 04:30:05;;;;;;;3.05;2.45;;;;;;;;;;5054376;28;20118;-60
2023/08/31 04:32:31;;;;;;;5.07;3.00;;;;;;;;;;5053444;28;20040;-60
2023/08/31 04:34:57;;;;;;;5.45;2.13;;;;;;;;;;5053944;28;20451;-59
2023/08/31 04:37:23;;;;;;;3.75;2.33;;;;;;;;;;5054068;28;20049;-60
2023/08/31 04:39:48;;;;;;;2.88;1.85;;;;;;;;;;5053980;28;20153;-59
2023/08/31 04:42:16;;;;;;;3.28;2.47;;;;;;;;;;5053362;28;20025;-60
2023/08/31 04:44:43;;;;;;;3.33;2.40;;;;;;;;;;5053265;28;20112;-59
2023/08/31 04:47:09;;;;;;;3.55;2.15;;;;;;;;;;5053367;28;20029;-59
2023/08/31 04:49:35;;;;;;;3.70;2.80;;;;;;;;;;5053597;28;20020;-59
2023/08/31 04:52:00;;;;;;;2.53;1.90;;;;;;;;;;5053322;28;20105;-59
2023/08/31 04:54:26;;;;;;;2.70;2.08;;;;;;;;;;5053470;28;20039;-59
2023/08/31 04:56:52;;;;;;;3.95;2.40;;;;;;;;;;5052935;28;20479;-59
2023/08/31 04:59:18;;;;;;;2.78;2.47;;;;;;;;;;5053792;28;20033;-59
2023/08/31 05:01:44;;;;;;;2.33;1.75;;;;;;;;;;5053653;28;20052;-59
2023/08/31 05:04:10;;;;;;;4.82;2.67;;;;;;;;;;5052878;28;20071;-60
2023/08/31 05:06:36;;;;;;;3.42;2.42;;;;;;;;;;5053104;28;20032;-60
2023/08/31 05:09:02;;;;;;;4.43;3.13;;;;;;;;;;5056544;28;20029;-60
2023/08/31 05:11:28;;;;;;;4.40;2.88;;;;;;;;;;5057677;28;20167;-61
2023/08/31 05:13:54;;;;;;;3.00;2.40;;;;;;;;;;5056862;28;20052;-60
2023/08/31 05:16:20;;;;;;;5.30;2.92;;;;;;;;;;5056550;28;20060;-60
2023/08/31 05:18:46;;;;;;;3.65;2.75;;;;;;;;;;5056794;28;20075;-60
2023/08/31 05:21:12;;;;;;;8.57;2.58;;;;;;;;;;5057499;28;20389;-61
2023/08/31 05:23:38;;;;;;;2.80;2.10;;;;;;;;;;5056730;28;20021;-60
2023/08/31 05:26:04;;;;;;;3.65;2.95;;;;;;;;;;5057086;28;20033;-60
2023/08/31 05:28:30;;;;;;;2.75;2.00;;;;;;;;;;5056585;28;20035;-60
2023/08/31 05:30:57;;;;;;;3.72;2.70;;;;;;;;;;5057274;28;20032;-60
2023/08/31 05:33:25;;;;;;;4.60;2.90;;;;;;;;;;5056400;28;20036;-60
2023/08/31 05:35:51;;;;;;;3.40;2.85;;;;;;;;;;5056102;28;20049;-60
2023/08/31 05:38:17;;;;;;;5.22;3.60;;;;;;;;;;5056132;28;20036;-60
2023/08/31 05:40:45;;;;;;;4.75;3.47;;;;;;;;;;5056758;28;20025;-60
2023/08/31 05:43:12;;;;;;;5.25;2.85;;;;;;;;;;5056469;28;20025;-60
2023/08/31 05:45:38;;;;;;;8.32;2.90;;;;;;;;;;5056773;28;20029;-60
2023/08/31 05:48:04;;;;;;;3.60;2.65;;;;;;;;;;5056789;28;20029;-60
2023/08/31 05:50:30;;;;;;;3.92;2.78;;;;;;;;;;5056316;28;20037;-60
2023/08/31 05:52:56;;;;;;;3.75;2.75;;;;;;;;;;5056188;28;20112;-60
2023/08/31 05:55:23;;;;;;;5.35;3.13;;;;;;;;;;5056151;28;20083;-60
2023/08/31 05:57:49;;;;;;;3.35;2.22;;;;;;;;;;5056275;28;20079;-60
2023/08/31 06:00:16;;;;;;;4.00;2.78;;;;;;;;;;5056645;28;20029;-60
2023/08/31 06:02:44;;;;;;;3.55;3.03;;;;;;;;;;5056042;28;20021;-60
2023/08/31 06:05:11;;;;;;;3.05;2.20;;;;;;;;;;5055874;28;20398;-61
2023/08/31 06:07:37;;;;;;;4.15;2.45;;;;;;;;;;5055983;28;20025;-60
2023/08/31 06:10:04;;;;;;;5.30;2.65;;;;;;;;;;5055586;28;20112;-61
2023/08/31 06:12:30;;;;;;;3.42;2.58;;;;;;;;;;5055758;28;20033;-60
2023/08/31 06:14:56;;;;;;;5.65;3.45;;;;;;;;;;5055932;28;20412;-61
2023/08/31 06:17:22;;;;;;;3.85;2.67;;;;;;;;;;5055691;28;20025;-60
2023/08/31 06:19:48;;;;;;;5.80;2.63;;;;;;;;;;5056449;28;20024;-60
2023/08/31 06:22:14;;;;;;;3.60;2.63;;;;;;;;;;5056377;28;20028;-60
2023/08/31 06:24:40;;;;;;;4.15;2.10;;;;;;;;;;5055805;28;20040;-60
2023/08/31 06:27:06;;;;;;;3.30;2.22;;;;;;;;;;5055554;28;20475;-60
2023/08/31 06:29:32;;;;;;;4.78;2.45;;;;;;;;;;5056048;28;20024;-60
2023/08/31 06:31:58;;;;;;;3.25;2.30;;;;;;;;;;5055413;28;20032;-60
2023/08/31 06:34:24;;;;;;;4.28;2.42;;;;;;;;;;5055739;28;20108;-60
2023/08/31 06:36:50;;;;;;;7.35;2.67;;;;;;;;;;5055106;28;20057;-60
2023/08/31 06:39:16;;;;;;;7.60;2.20;;;;;;;;;;5055276;28;20447;-60
2023/08/31 06:41:42;;;;;;;4.03;2.40;;;;;;;;;;5055474;28;20028;-60
2023/08/31 06:44:08;;;;;;;4.45;2.42;;;;;;;;;;5055419;28;20032;-60
2023/08/31 06:46:37;;;;;;;4.97;2.90;;;;;;;;;;5055155;28;20075;-61
2023/08/31 06:49:04;;;;;;;3.70;2.50;;;;;;;;;;5055357;28;20081;-60
2023/08/31 06:51:30;;;;;;;3.00;2.15;;;;;;;;;;5055608;28;20348;-60
2023/08/31 06:54:01;;;;;;;4.28;2.45;;;;;;;;;;5055792;28;20114;-60
2023/08/31 06:56:27;;;;;;;3.15;2.10;;;;;;;;;;5055572;28;20035;-60
2023/08/31 06:58:53;;;;;;;2.72;1.98;;;;;;;;;;5054933;28;20021;-60
2023/08/31 07:01:19;;;;;;;5.10;2.10;;;;;;;;;;5055369;28;20033;-60
2023/08/31 07:03:45;;;;;;;3.03;2.10;;;;;;;;;;5054926;28;20171;-61
2023/08/31 07:06:11;;;;;;;2.88;1.98;;;;;;;;;;5055258;28;20040;-60
2023/08/31 07:08:40;;;;;;;7.47;2.25;;;;;;;;;;5054474;28;20029;-61
2023/08/31 07:11:06;;;;;;;3.13;1.77;;;;;;;;;;5055251;28;20079;-61
2023/08/31 07:13:32;;;;;;;5.97;1.90;;;;;;;;;;5054650;28;20052;-60
2023/08/31 07:15:58;;;;;;;3.03;2.17;;;;;;;;;;5055074;28;20056;-60
2023/08/31 07:18:24;;;;;;;3.05;1.65;;;;;;;;;;5054726;28;20495;-60
2023/08/31 07:20:50;;;;;;;3.53;1.73;;;;;;;;;;5054545;28;20473;-60
2023/08/31 07:23:15;;;;;;;3.92;1.88;;;;;;;;;;5054135;28;20522;-60
2023/08/31 07:25:44;;;;;;;3.80;1.50;;;;;;;;;;5054288;28;20115;-60
2023/08/31 07:28:10;;;;;;;3.00;1.90;;;;;;;;;;5054329;28;20116;-60
2023/08/31 07:30:37;;;;;;;2.28;1.23;;;;;;;;;;5054459;28;20063;-60
2023/08/31 07:33:03;;;;;;;5.65;1.45;;;;;;;;;;5054235;28;20451;-60
2023/08/31 07:35:30;;;;;;;2.70;1.52;;;;;;;;;;5054577;28;20048;-60
2023/08/31 07:37:56;;;;;;;4.18;1.67;;;;;;;;;;5054846;28;20367;-60
2023/08/31 07:40:21;;;;;;;2.70;1.40;;;;;;;;;;5054730;28;20111;-60
2023/08/31 07:42:47;;;;;;;2.45;1.40;;;;;;;;;;5054132;28;20481;-60
2023/08/31 07:45:13;;;;;;;2.78;1.42;;;;;;;;;;5053993;28;20025;-60
2023/08/31 07:47:39;;;;;;;2.78;1.83;;;;;;;;;;5053963;28;20083;-60
2023/08/31 07:50:06;;;;;;;4.45;1.50;;;;;;;;;;5054614;28;20112;-60
2023/08/31 07:52:32;;;;;;;2.75;1.60;;;;;;;;;;5053849;28;20199;-60
2023/08/31 07:54:58;;;;;;;2.17;1.38;;;;;;;;;;5054218;28;20056;-60
2023/08/31 07:57:24;;;;;;;2.72;1.35;;;;;;;;;;5054183;28;20033;-60
2023/08/31 07:59:50;;;;;;;2.83;1.33;;;;;;;;;;5054611;28;20040;-60
2023/08/31 08:02:16;;;;;;;4.97;1.17;;;;;;;;;;5054027;28;20405;-60
2023/08/31 08:04:42;;;;;;;2.72;1.40;;;;;;;;;;5053638;28;20064;-60
2023/08/31 08:07:08;;;;;;;2.53;1.58;;;;;;;;;;5053676;28;20056;-60
2023/08/31 08:09:35;;;;;;;1.65;0.98;;;;;;;;;;5053817;28;20078;-60
2023/08/31 08:12:01;;;;;;;3.38;1.70;;;;;;;;;;5053653;28;20033;-60
2023/08/31 08:14:27;;;;;;;2.03;1.13;;;;;;;;;;5053569;28;20371;-60
2023/08/31 08:16:53;;;;;;;2.42;1.13;;;;;;;;;;5054393;28;20099;-60
2023/08/31 08:19:22;;;;;;;3.90;1.30;;;;;;;;;;5054195;28;20029;-60
2023/08/31 08:21:48;;;;;;;2.47;1.38;;;;;;;;;;5053182;28;20468;-60
2023/08/31 08:24:14;;;;;;;2.10;1.10;;;;;;;;;;5053529;28;20116;-60
2023/08/31 08:26:40;;;;;;;3.28;1.20;;;;;;;;;;5053162;28;20033;-60
2023/08/31 08:29:06;;;;;;;4.95;1.42;;;;;;;;;;5054019;28;20021;-60
2023/08/31 08:31:31;;;;;;;3.58;1.33;;;;;;;;;;5053992;28;20028;-60
2023/08/31 08:33:57;;;;;;;2.80;1.60;;;;;;;;;;5053159;28;20108;-60
2023/08/31 08:36:23;;;;;;;4.82;1.60;;;;;;;;;;5053719;28;20060;-60
2023/08/31 08:38:49;;;;;;;2.88;1.20;;;;;;;;;;5053364;28;20035;-60
2023/08/31 08:41:19;;;;;;;1.88;1.13;;;;;;;;;;5053316;28;20017;-60
2023/08/31 08:43:47;;;;;;;2.58;1.10;;;;;;;;;;5055824;28;20029;-60
2023/08/31 08:46:13;;;;;;;4.40;1.48;;;;;;;;;;5057398;28;20115;-60
2023/08/31 08:48:39;;;;;;;2.70;1.52;;;;;;;;;;5057405;28;20033;-60
2023/08/31 08:51:07;;;;;;;3.03;1.48;;;;;;;;;;5057404;28;20112;-60
2023/08/31 08:53:33;;;;;;;2.05;1.30;;;;;;;;;;5057282;28;20021;-60
2023/08/31 08:55:59;;;;;;;3.03;1.20;;;;;;;;;;5057752;28;20025;-60
2023/08/31 08:58:25;;;;;;;1.73;0.73;;;;;;;;;;5057253;28;20021;-60
2023/08/31 09:00:51;;;;;;;2.83;1.55;;;;;;;;;;5057773;28;20159;-60
2023/08/31 09:03:17;;;;;;;3.28;1.58;;;;;;;;;;5056905;28;20104;-60
2023/08/31 09:05:43;;;;;;;3.63;1.33;;;;;;;;;;5057105;28;20104;-60
2023/08/31 09:08:12;;;;;;;2.78;1.58;;;;;;;;;;5057365;28;20082;-60
2023/08/31 09:10:41;;;;;;;2.17;1.23;;;;;;;;;;5057578;28;20021;-60
2023/08/31 09:13:17;;;;;;;2.20;1.10;;;;;;;;;;5057386;28;20465;-60
2023/08/31 09:15:44;;;;;;;3.20;1.08;;;;;;;;;;5057482;28;20064;-60
2023/08/31 09:18:23;;;;;;;3.05;1.42;;;;;;;;;;5056811;28;20112;-60
2023/08/31 09:20:49;;;;;;;2.58;1.27;;;;;;;;;;5057638;28;20056;-60
2023/08/31 09:23:15;;;;;;;2.50;1.38;;;;;;;;;;5056966;28;20474;-60
2023/08/31 09:25:45;;;;;;;2.08;0.82;;;;;;;;;;5056673;28;20063;-60
2023/08/31 09:28:12;;;;;;;3.03;1.35;;;;;;;;;;5057172;28;20025;-60
2023/08/31 09:30:40;;;;;;;4.63;1.88;;;;;;;;;;5057180;28;20020;-60
2023/08/31 09:33:06;;;;;;;3.75;1.70;;;;;;;;;;5056607;28;20032;-60
2023/08/31 09:35:32;;;;;;;2.35;1.10;;;;;;;;;;5056168;28;20103;-60
2023/08/31 09:37:58;;;;;;;4.28;1.20;;;;;;;;;;5057162;28;20024;-60
2023/08/31 09:40:24;;;;;;;3.33;1.15;;;;;;;;;;5057022;28;20017;-60
2023/08/31 09:42:51;;;;;;;4.30;1.90;;;;;;;;;;5056325;28;20032;-60
2023/08/31 09:45:46;;;;;;;3.47;1.50;;;;;;;;;;5057064;28;20064;-60
2023/08/31 09:48:13;;;;;;;2.65;1.55;;;;;;;;;;5051351;28;20040;-60
2023/08/31 09:50:40;;;;;;;2.90;1.63;;;;;;;;;;5057025;28;20028;-60
2023/08/31 09:53:07;;;;;;;1.77;0.85;;;;;;;;;;5056081;28;20071;-60
2023/08/31 09:55:33;;;;;;;3.00;1.30;;;;;;;;;;5056048;28;20033;-60
2023/08/31 09:58:00;;;;;;;2.22;1.15;;;;;;;;;;5056944;28;20039;-60
2023/08/31 10:00:27;;;;;;;5.05;1.27;;;;;;;;;;5056604;28;20455;-60
2023/08/31 10:02:54;;;;;;;3.42;1.70;;;;;;;;;;5055695;28;20451;-60
2023/08/31 10:05:20;;;;;;;2.53;1.08;;;;;;;;;;5055875;28;20025;-60
2023/08/31 10:07:47;;;;;;;2.70;1.23;;;;;;;;;;5055943;28;20025;-60
2023/08/31 10:10:14;;;;;;;2.35;1.00;;;;;;;;;;5056483;28;20021;-61
2023/08/31 10:12:40;;;;;;;2.30;1.30;;;;;;;;;;5055837;28;20029;-60
2023/08/31 10:15:06;;;;;;;5.93;1.10;;;;;;;;;;5056170;28;20463;-60
2023/08/31 10:17:33;;;;;;;2.83;1.50;;;;;;;;;;5055750;28;20348;-60
2023/08/31 10:19:59;;;;;;;5.15;1.27;;;;;;;;;;5055568;28;20024;-61
2023/08/31 10:22:25;;;;;;;2.90;1.35;;;;;;;;;;5056432;28;20021;-60
2023/08/31 10:24:58;;;;;;;5.20;1.80;;;;;;;;;;5055840;28;20025;-60
2023/08/31 10:27:24;;;;;;;1.67;0.88;;;;;;;;;;5055697;28;20554;-60
2023/08/31 10:29:50;;;;;;;2.17;1.30;;;;;;;;;;5055929;28;20063;-60
2023/08/31 10:32:21;;;;;;;5.38;1.50;;;;;;;;;;5055418;28;20111;-60
2023/08/31 10:35:05;;;;;;;4.40;1.20;;;;;;;;;;5055495;28;20029;-60
2023/08/31 10:37:31;;;;;;;5.25;1.45;;;;;;;;;;5056168;28;20049;-60
2023/08/31 10:40:07;;;;;;;2.92;1.30;;;;;;;;;;5055354;28;20120;-60
2023/08/31 10:42:33;;;;;;;4.07;1.33;;;;;;;;;;5055223;28;20174;-60
2023/08/31 10:45:06;;;;;;;3.13;1.50;;;;;;;;;;5055933;28;20112;-60
2023/08/31 10:47:40;;;;;;;2.92;1.00;;;;;;;;;;5055690;28;20068;-60
2023/08/31 10:50:23;;;;;;;2.88;1.08;;;;;;;;;;5055733;28;20071;-60
2023/08/31 10:52:49;;;;;;;3.83;1.70;;;;;;;;;;5055605;28;20025;-60
2023/08/31 10:55:16;;;;;;;4.68;1.00;;;;;;;;;;5055575;28;20032;-60
2023/08/31 10:57:42;;;;;;;3.65;1.10;;;;;;;;;;5055075;28;20032;-60
2023/08/31 11:00:09;;;;;;;1.92;0.88;;;;;;;;;;5055553;28;20021;-60
2023/08/31 11:02:36;;;;;;;2.80;1.23;;;;;;;;;;5055488;28;20037;-60
2023/08/31 11:05:05;;;;;;;2.38;1.10;;;;;;;;;;5054193;28;20079;-60
2023/08/31 11:07:31;;;;;;;1.98;1.17;;;;;;;;;;5054320;28;20502;-60
2023/08/31 11:10:11;;;;;;;2.83;1.30;;;;;;;;;;5055403;28;20060;-60
2023/08/31 11:12:37;;;;;;;4.30;1.08;;;;;;;;;;5054659;28;20078;-60
2023/08/31 11:15:03;;;;;;;2.47;1.17;;;;;;;;;;5054634;28;20129;-60
2023/08/31 11:17:32;;;;;;;2.88;1.40;;;;;;;;;;5055169;28;20029;-60
2023/08/31 11:19:58;;;;;;;2.38;0.93;;;;;;;;;;5054903;28;20059;-60
2023/08/31 11:22:24;;;;;;;2.83;1.23;;;;;;;;;;5054809;28;20044;-60
2023/08/31 11:24:49;;;;;;;2.15;0.82;;;;;;;;;;5054408;28;20032;-60
2023/08/31 11:27:19;;;;;;;4.65;1.58;;;;;;;;;;5054476;28;20524;-61
2023/08/31 11:29:45;;;;;;;5.05;1.65;;;;;;;;;;5055306;28;20024;-60
2023/08/31 11:32:11;;;;;;;3.03;1.50;;;;;;;;;;5054378;28;20521;-60
2023/08/31 11:34:42;;;;;;;4.50;1.67;;;;;;;;;;5055004;28;20451;-60
2023/08/31 11:37:07;;;;;;;;;;;;;;;;;;5055599;28;20056;-60
2023/08/31 11:39:33;;;;;;;5.00;1.80;;;;;;;;;;5054507;28;19904;-60
2023/08/31 11:41:59;;;;;;;4.43;1.17;;;;;;;;;;5053932;28;20163;-60
2023/08/31 11:44:25;;;;;;;2.40;1.33;;;;;;;;;;5054842;28;20021;-60
2023/08/31 11:46:52;;;;;;;2.38;1.52;;;;;;;;;;5054017;28;20025;-60
2023/08/31 11:49:19;;;;;;;2.22;1.33;;;;;;;;;;5054348;28;20025;-60
2023/08/31 11:51:45;;;;;;;3.67;1.60;;;;;;;;;;5054520;28;20021;-60
2023/08/31 11:54:11;;;;;;;2.72;1.35;;;;;;;;;;5054383;28;20028;-60
2023/08/31 11:56:42;;;;;;;2.17;1.00;;;;;;;;;;5053895;28;20025;-58
2023/08/31 11:59:09;;;;;;;2.55;1.48;;;;;;;;;;5053956;28;20483;-59
2023/08/31 12:01:38;;;;;;;3.28;1.15;;;;;;;;;;5054325;28;20477;-59
2023/08/31 12:04:10;;;;;;;3.58;1.48;;;;;;;;;;5053797;28;20075;-59
2023/08/31 12:06:36;;;;;;;3.25;1.30;;;;;;;;;;5054031;28;20029;-59
2023/08/31 12:09:04;;;;;;;2.55;1.38;;;;;;;;;;5053666;28;20366;-59
2023/08/31 12:11:30;;;;;;;3.40;1.33;;;;;;;;;;5053903;28;20029;-59
2023/08/31 12:13:59;;;;;;;4.40;1.40;;;;;;;;;;5054174;28;20025;-59
2023/08/31 12:16:32;;;;;;;2.42;0.90;;;;;;;;;;5053539;28;20119;-59
2023/08/31 12:18:59;;;;;;;1.70;0.90;;;;;;;;;;5053952;28;20021;-59
2023/08/31 12:21:25;;;;;;;5.70;1.90;;;;;;;;;;5053224;28;20024;-59
2023/08/31 12:23:51;;;;;;;2.83;1.38;;;;;;;;;;5053624;28;20021;-59
2023/08/31 12:26:17;;;;;;;2.85;1.60;;;;;;;;;;5053173;28;20036;-59
2023/08/31 12:28:46;;;;;;;1.80;1.27;;;;;;;;;;5053861;28;20044;-59
2023/08/31 12:31:12;;;;;;;4.90;1.48;;;;;;;;;;5053527;28;20075;-59
2023/08/31 12:33:38;;;;;;;3.28;1.73;;;;;;;;;;5053403;28;20021;-59
2023/08/31 12:36:04;;;;;;;2.47;1.58;;;;;;;;;;5053426;28;20056;-59
2023/08/31 12:38:31;;;;;;;1.70;0.77;;;;;;;;;;5053383;28;20040;-59
2023/08/31 12:40:57;;;;;;;1.60;0.75;;;;;;;;;;5054014;28;20079;-59
2023/08/31 12:43:23;;;;;;;2.33;1.20;;;;;;;;;;5053107;28;20462;-59
2023/08/31 12:45:49;;;;;;;1.90;1.00;;;;;;;;;;5054098;28;20183;-59
2023/08/31 12:48:15;;;;;;;1.90;1.05;;;;;;;;;;5053350;28;20033;-59
2023/08/31 12:50:41;;;;;;;2.42;1.13;;;;;;;;;;5054181;28;20427;-59
2023/08/31 12:53:07;;;;;;;3.25;1.40;;;;;;;;;;5053240;28;20410;-59
2023/08/31 12:55:33;;;;;;;2.95;1.58;;;;;;;;;;5052976;28;20036;-60
2023/08/31 12:57:59;;;;;;;1.98;0.95;;;;;;;;;;5053203;28;20017;-60
2023/08/31 13:00:27;;;;;;;2.67;0.95;;;;;;;;;;5053285;28;20406;-60
2023/08/31 13:02:53;;;;;;;4.40;1.58;;;;;;;;;;5053623;28;20032;-60
2023/08/31 13:05:19;;;;;;;1.88;0.90;;;;;;;;;;5053595;28;20021;-60
2023/08/31 13:07:45;;;;;;;1.88;1.10;;;;;;;;;;5053085;28;20051;-59
2023/08/31 13:10:11;;;;;;;3.20;1.33;;;;;;;;;;5053971;28;20502;-61
2023/08/31 13:12:37;;;;;;;2.75;1.30;;;;;;;;;;5052737;28;20027;-61
2023/08/31 13:15:04;;;;;;;6.93;1.08;;;;;;;;;;5053075;28;20037;-61
2023/08/31 13:17:30;;;;;;;3.25;1.15;;;;;;;;;;5053247;28;20546;-61
2023/08/31 13:19:59;;;;;;;3.20;1.65;;;;;;;;;;5053836;28;20022;-61
2023/08/31 13:22:25;;;;;;;4.63;1.17;;;;;;;;;;5053261;28;20062;-60
2023/08/31 13:24:51;;;;;;;2.30;1.33;;;;;;;;;;5053586;28;20029;-61
2023/08/31 13:27:17;;;;;;;3.95;1.75;;;;;;;;;;5052934;28;20029;-61
2023/08/31 13:29:44;;;;;;;2.95;1.48;;;;;;;;;;5055179;28;20098;-60
2023/08/31 13:32:10;;;;;;;2.22;1.15;;;;;;;;;;5056936;28;20025;-60
2023/08/31 13:34:39;;;;;;;3.63;1.90;;;;;;;;;;5056816;28;20024;-61
2023/08/31 13:37:05;;;;;;;2.50;1.15;;;;;;;;;;5056110;28;20081;-60
2023/08/31 13:39:31;;;;;;;3.58;1.70;;;;;;;;;;5057331;28;20032;-60
2023/08/31 13:41:57;;;;;;;3.00;1.42;;;;;;;;;;5056349;28;20028;-60
2023/08/31 13:44:23;;;;;;;4.13;1.00;;;;;;;;;;5056191;28;20021;-59
2023/08/31 13:46:49;;;;;;;5.75;1.70;;;;;;;;;;5056519;28;20029;-59
2023/08/31 13:49:16;;;;;;;2.20;0.98;;;;;;;;;;5056192;28;20455;-60
2023/08/31 13:51:42;;;;;;;2.63;1.17;;;;;;;;;;5056600;28;20079;-59
2023/08/31 13:54:08;;;;;;;3.13;1.52;;;;;;;;;;5056062;28;20438;-58
2023/08/31 13:56:34;;;;;;;2.80;1.15;;;;;;;;;;5056932;28;20040;-60
2023/08/31 13:59:00;;;;;;;3.25;1.20;;;;;;;;;;5056180;28;20087;-60
2023/08/31 14:01:26;;;;;;;3.60;1.63;;;;;;;;;;5055990;28;20025;-61
2023/08/31 14:03:53;;;;;;;2.50;1.55;;;;;;;;;;5056002;28;20024;-61
2023/08/31 14:06:19;;;;;;;3.88;1.30;;;;;;;;;;5056364;28;20028;-60
2023/08/31 14:08:45;;;;;;;3.65;1.58;;;;;;;;;;5055953;28;20454;-61
2023/08/31 14:11:11;;;;;;;2.85;1.35;;;;;;;;;;5056010;28;20078;-61
2023/08/31 14:13:37;;;;;;;2.38;1.10;;;;;;;;;;5055538;28;20108;-60
2023/08/31 14:16:03;;;;;;;4.28;1.85;;;;;;;;;;5056339;28;20040;-60
2023/08/31 14:18:30;;;;;;;2.53;1.35;;;;;;;;;;5055825;28;20055;-60
2023/08/31 14:20:56;;;;;;;6.18;1.88;;;;;;;;;;5056568;28;20032;-60
2023/08/31 14:23:22;;;;;;;2.47;1.15;;;;;;;;;;5055570;28;20029;-60
2023/08/31 14:25:48;;;;;;;3.47;1.50;;;;;;;;;;5055581;28;20028;-60
2023/08/31 14:28:14;;;;;;;1.73;1.17;;;;;;;;;;5055611;28;20027;-60
2023/08/31 14:30:43;;;;;;;2.40;1.15;;;;;;;;;;5055775;28;20044;-60
2023/08/31 14:33:09;;;;;;;1.95;1.00;;;;;;;;;;5055409;28;20108;-60
2023/08/31 14:35:38;;;;;;;3.38;1.30;;;;;;;;;;5055455;28;20447;-60
2023/08/31 14:38:04;;;;;;;1.88;0.95;;;;;;;;;;5055384;28;20083;-60
2023/08/31 14:40:30;;;;;;;2.75;1.17;;;;;;;;;;5054838;28;20112;-60